sensor_id;sensor_type;location;lat;lon;timestamp;P1;durP1;ratioP1;P2;durP2;ratioP2
18973;SDS011;9621;48.690;9.466;2023-05-02T00:01:00;4.83;;;3.93;;
18973;SDS011;9621;48.690;9.466;2023-05-02T00:03:29;5.15;;;4.03;;
18973;SDS011;9621;48.690;9.466;2023-05-02T00:05:56;6.50;;;4.03;;
18973;SDS011;9621;48.690;9.466;2023-05-02T00:08:23;5.85;;;4.22;;
18973;SDS011;9621;48.690;9.466;2023-05-02T00:10:52;5.57;;;4.27;;
18973;SDS011;9621;48.690;9.466;2023-05-02T00:13:18;6.83;;;5.00;;
18973;SDS011;9621;48.690;9.466;2023-05-02T00:15:45;6.50;;;4.73;;
18973;SDS011;9621;48.690;9.466;2023-05-02T00:18:12;5.82;;;4.28;;
18973;SDS011;9621;48.690;9.466;2023-05-02T00:20:39;5.63;;;4.60;;
18973;SDS011;9621;48.690;9.466;2023-05-02T00:23:06;6.05;;;4.28;;
18973;SDS011;9621;48.690;9.466;2023-05-02T00:25:36;5.00;;;4.50;;
18973;SDS011;9621;48.690;9.466;2023-05-02T00:28:04;5.90;;;4.37;;
18973;SDS011;9621;48.690;9.466;2023-05-02T00:30:31;6.47;;;4.47;;
18973;SDS011;9621;48.690;9.466;2023-05-02T00:32:58;4.93;;;4.40;;
18973;SDS011;9621;48.690;9.466;2023-05-02T00:35:25;7.07;;;4.30;;
18973;SDS011;9621;48.690;9.466;2023-05-02T00:37:51;8.53;;;4.30;;
18973;SDS011;9621;48.690;9.466;2023-05-02T00:40:19;4.47;;;3.80;;
18973;SDS011;9621;48.690;9.466;2023-05-02T00:42:46;7.33;;;4.43;;
18973;SDS011;9621;48.690;9.466;2023-05-02T00:45:14;8.38;;;4.35;;
18973;SDS011;9621;48.690;9.466;2023-05-02T00:47:41;4.90;;;4.13;;
18973;SDS011;9621;48.690;9.466;2023-05-02T00:50:08;8.93;;;4.28;;
18973;SDS011;9621;48.690;9.466;2023-05-02T00:52:36;4.95;;;4.38;;
18973;SDS011;9621;48.690;9.466;2023-05-02T00:55:03;8.87;;;4.27;;
18973;SDS011;9621;48.690;9.466;2023-05-02T00:57:32;4.53;;;4.00;;
18973;SDS011;9621;48.690;9.466;2023-05-02T00:59:59;5.90;;;4.70;;
18973;SDS011;9621;48.690;9.466;2023-05-02T01:02:31;4.93;;;4.43;;
18973;SDS011;9621;48.690;9.466;2023-05-02T01:05:04;5.77;;;3.83;;
18973;SDS011;9621;48.690;9.466;2023-05-02T01:07:43;6.07;;;4.50;;
18973;SDS011;9621;48.690;9.466;2023-05-02T01:10:21;5.30;;;4.60;;
18973;SDS011;9621;48.690;9.466;2023-05-02T01:12:57;5.00;;;4.47;;
18973;SDS011;9621;48.690;9.466;2023-05-02T01:15:28;5.53;;;4.03;;
18973;SDS011;9621;48.690;9.466;2023-05-02T01:17:59;6.47;;;4.57;;
18973;SDS011;9621;48.690;9.466;2023-05-02T01:20:28;4.37;;;3.87;;
18973;SDS011;9621;48.690;9.466;2023-05-02T01:22:59;4.95;;;3.78;;
18973;SDS011;9621;48.690;9.466;2023-05-02T01:25:39;4.47;;;3.97;;
18973;SDS011;9621;48.690;9.466;2023-05-02T01:28:20;6.47;;;4.30;;
18973;SDS011;9621;48.690;9.466;2023-05-02T01:30:58;4.20;;;3.80;;
18973;SDS011;9621;48.690;9.466;2023-05-02T01:33:26;5.57;;;4.13;;
18973;SDS011;9621;48.690;9.466;2023-05-02T01:35:55;5.03;;;3.90;;
18973;SDS011;9621;48.690;9.466;2023-05-02T01:38:24;4.47;;;3.80;;
18973;SDS011;9621;48.690;9.466;2023-05-02T01:40:52;5.10;;;4.27;;
18973;SDS011;9621;48.690;9.466;2023-05-02T01:43:21;6.87;;;4.10;;
18973;SDS011;9621;48.690;9.466;2023-05-02T01:45:49;5.53;;;4.30;;
18973;SDS011;9621;48.690;9.466;2023-05-02T01:48:19;8.60;;;4.40;;
18973;SDS011;9621;48.690;9.466;2023-05-02T01:50:47;5.90;;;4.33;;
18973;SDS011;9621;48.690;9.466;2023-05-02T01:53:16;6.37;;;5.10;;
18973;SDS011;9621;48.690;9.466;2023-05-02T01:55:46;7.23;;;4.97;;
18973;SDS011;9621;48.690;9.466;2023-05-02T01:58:15;5.87;;;4.40;;
18973;SDS011;9621;48.690;9.466;2023-05-02T02:00:44;6.70;;;4.60;;
18973;SDS011;9621;48.690;9.466;2023-05-02T02:03:12;10.93;;;5.20;;
18973;SDS011;9621;48.690;9.466;2023-05-02T02:05:41;13.67;;;5.27;;
18973;SDS011;9621;48.690;9.466;2023-05-02T02:08:08;19.37;;;4.80;;
18973;SDS011;9621;48.690;9.466;2023-05-02T02:10:40;9.77;;;4.50;;
18973;SDS011;9621;48.690;9.466;2023-05-02T02:13:12;7.90;;;4.90;;
18973;SDS011;9621;48.690;9.466;2023-05-02T02:15:42;6.60;;;5.00;;
18973;SDS011;9621;48.690;9.466;2023-05-02T02:18:17;5.97;;;4.80;;
18973;SDS011;9621;48.690;9.466;2023-05-02T02:20:48;6.30;;;5.00;;
18973;SDS011;9621;48.690;9.466;2023-05-02T02:23:17;6.80;;;4.47;;
18973;SDS011;9621;48.690;9.466;2023-05-02T02:25:47;16.27;;;5.43;;
18973;SDS011;9621;48.690;9.466;2023-05-02T02:28:15;15.43;;;5.00;;
18973;SDS011;9621;48.690;9.466;2023-05-02T02:30:42;10.33;;;4.40;;
18973;SDS011;9621;48.690;9.466;2023-05-02T02:33:09;5.57;;;3.77;;
18973;SDS011;9621;48.690;9.466;2023-05-02T02:35:36;16.17;;;5.70;;
18973;SDS011;9621;48.690;9.466;2023-05-02T02:38:12;21.40;;;5.90;;
18973;SDS011;9621;48.690;9.466;2023-05-02T02:40:46;38.63;;;7.03;;
18973;SDS011;9621;48.690;9.466;2023-05-02T02:43:22;30.33;;;6.80;;
18973;SDS011;9621;48.690;9.466;2023-05-02T02:46:01;33.40;;;6.53;;
18973;SDS011;9621;48.690;9.466;2023-05-02T02:48:41;19.20;;;5.67;;
18973;SDS011;9621;48.690;9.466;2023-05-02T02:51:19;26.87;;;5.17;;
18973;SDS011;9621;48.690;9.466;2023-05-02T02:53:55;12.70;;;5.33;;
18973;SDS011;9621;48.690;9.466;2023-05-02T02:56:27;13.77;;;5.27;;
18973;SDS011;9621;48.690;9.466;2023-05-02T02:58:59;10.03;;;5.47;;
18973;SDS011;9621;48.690;9.466;2023-05-02T03:01:29;10.37;;;5.20;;
18973;SDS011;9621;48.690;9.466;2023-05-02T03:03:57;6.30;;;4.90;;
18973;SDS011;9621;48.690;9.466;2023-05-02T03:06:25;8.80;;;4.93;;
18973;SDS011;9621;48.690;9.466;2023-05-02T03:08:54;10.20;;;4.40;;
18973;SDS011;9621;48.690;9.466;2023-05-02T03:11:21;29.23;;;4.83;;
18973;SDS011;9621;48.690;9.466;2023-05-02T03:13:48;30.47;;;5.23;;
18973;SDS011;9621;48.690;9.466;2023-05-02T03:16:33;17.70;;;4.30;;
18973;SDS011;9621;48.690;9.466;2023-05-02T03:19:01;55.77;;;5.97;;
18973;SDS011;9621;48.690;9.466;2023-05-02T03:21:28;48.83;;;6.50;;
18973;SDS011;9621;48.690;9.466;2023-05-02T03:23:58;41.77;;;6.13;;
18973;SDS011;9621;48.690;9.466;2023-05-02T03:26:26;29.87;;;5.40;;
18973;SDS011;9621;48.690;9.466;2023-05-02T03:28:53;46.63;;;6.13;;
18973;SDS011;9621;48.690;9.466;2023-05-02T03:31:20;24.60;;;6.43;;
18973;SDS011;9621;48.690;9.466;2023-05-02T03:33:48;12.77;;;5.97;;
18973;SDS011;9621;48.690;9.466;2023-05-02T03:36:15;43.27;;;6.27;;
18973;SDS011;9621;48.690;9.466;2023-05-02T03:38:42;20.20;;;5.10;;
18973;SDS011;9621;48.690;9.466;2023-05-02T03:41:10;39.87;;;6.33;;
18973;SDS011;9621;48.690;9.466;2023-05-02T03:43:37;20.07;;;5.03;;
18973;SDS011;9621;48.690;9.466;2023-05-02T03:46:04;23.55;;;5.43;;
18973;SDS011;9621;48.690;9.466;2023-05-02T03:48:32;17.97;;;4.97;;
18973;SDS011;9621;48.690;9.466;2023-05-02T03:51:00;42.93;;;6.73;;
18973;SDS011;9621;48.690;9.466;2023-05-02T03:53:27;34.03;;;5.83;;
18973;SDS011;9621;48.690;9.466;2023-05-02T03:55:54;31.93;;;6.13;;
18973;SDS011;9621;48.690;9.466;2023-05-02T03:58:23;37.00;;;6.37;;
18973;SDS011;9621;48.690;9.466;2023-05-02T04:00:51;16.37;;;4.83;;
18973;SDS011;9621;48.690;9.466;2023-05-02T04:03:18;17.03;;;5.70;;
18973;SDS011;9621;48.690;9.466;2023-05-02T04:05:45;33.70;;;6.57;;
18973;SDS011;9621;48.690;9.466;2023-05-02T04:08:12;21.70;;;5.23;;
18973;SDS011;9621;48.690;9.466;2023-05-02T04:10:39;10.07;;;5.60;;
18973;SDS011;9621;48.690;9.466;2023-05-02T04:13:05;18.93;;;5.17;;
18973;SDS011;9621;48.690;9.466;2023-05-02T04:15:34;21.03;;;5.30;;
18973;SDS011;9621;48.690;9.466;2023-05-02T04:18:01;11.37;;;5.03;;
18973;SDS011;9621;48.690;9.466;2023-05-02T04:20:28;15.60;;;4.87;;
18973;SDS011;9621;48.690;9.466;2023-05-02T04:22:55;9.07;;;4.43;;
18973;SDS011;9621;48.690;9.466;2023-05-02T04:25:22;5.77;;;4.90;;
18973;SDS011;9621;48.690;9.466;2023-05-02T04:27:49;5.07;;;4.33;;
18973;SDS011;9621;48.690;9.466;2023-05-02T04:30:16;5.13;;;4.30;;
18973;SDS011;9621;48.690;9.466;2023-05-02T04:32:44;6.00;;;4.77;;
18973;SDS011;9621;48.690;9.466;2023-05-02T04:35:11;5.37;;;4.27;;
18973;SDS011;9621;48.690;9.466;2023-05-02T04:37:39;7.97;;;4.80;;
18973;SDS011;9621;48.690;9.466;2023-05-02T04:40:06;6.40;;;4.70;;
18973;SDS011;9621;48.690;9.466;2023-05-02T04:42:34;6.03;;;4.83;;
18973;SDS011;9621;48.690;9.466;2023-05-02T04:45:01;6.67;;;4.83;;
18973;SDS011;9621;48.690;9.466;2023-05-02T04:47:28;5.33;;;4.43;;
18973;SDS011;9621;48.690;9.466;2023-05-02T04:49:56;5.10;;;4.60;;
18973;SDS011;9621;48.690;9.466;2023-05-02T04:52:23;6.67;;;3.97;;
18973;SDS011;9621;48.690;9.466;2023-05-02T04:54:50;4.87;;;4.33;;
18973;SDS011;9621;48.690;9.466;2023-05-02T04:57:17;4.50;;;3.87;;
18973;SDS011;9621;48.690;9.466;2023-05-02T04:59:43;5.97;;;4.17;;
18973;SDS011;9621;48.690;9.466;2023-05-02T05:02:10;4.20;;;3.80;;
18973;SDS011;9621;48.690;9.466;2023-05-02T05:04:37;4.73;;;4.23;;
18973;SDS011;9621;48.690;9.466;2023-05-02T05:07:06;4.40;;;4.00;;
18973;SDS011;9621;48.690;9.466;2023-05-02T05:09:33;5.97;;;4.30;;
18973;SDS011;9621;48.690;9.466;2023-05-02T05:11:59;8.07;;;4.40;;
18973;SDS011;9621;48.690;9.466;2023-05-02T05:14:27;6.73;;;3.97;;
18973;SDS011;9621;48.690;9.466;2023-05-02T05:16:55;5.00;;;4.33;;
18973;SDS011;9621;48.690;9.466;2023-05-02T05:19:22;6.17;;;4.50;;
18973;SDS011;9621;48.690;9.466;2023-05-02T05:21:49;4.83;;;4.30;;
18973;SDS011;9621;48.690;9.466;2023-05-02T05:24:17;8.40;;;5.00;;
18973;SDS011;9621;48.690;9.466;2023-05-02T05:26:44;6.57;;;4.73;;
18973;SDS011;9621;48.690;9.466;2023-05-02T05:29:11;6.50;;;5.00;;
18973;SDS011;9621;48.690;9.466;2023-05-02T05:31:38;7.00;;;4.70;;
18973;SDS011;9621;48.690;9.466;2023-05-02T05:34:05;6.10;;;5.17;;
18973;SDS011;9621;48.690;9.466;2023-05-02T05:36:32;6.20;;;5.57;;
18973;SDS011;9621;48.690;9.466;2023-05-02T05:38:59;8.30;;;5.80;;
18973;SDS011;9621;48.690;9.466;2023-05-02T05:41:28;7.87;;;6.67;;
18973;SDS011;9621;48.690;9.466;2023-05-02T05:43:55;10.10;;;7.07;;
18973;SDS011;9621;48.690;9.466;2023-05-02T05:46:22;10.77;;;7.33;;
18973;SDS011;9621;48.690;9.466;2023-05-02T05:48:49;8.40;;;7.00;;
18973;SDS011;9621;48.690;9.466;2023-05-02T05:51:15;9.20;;;6.63;;
18973;SDS011;9621;48.690;9.466;2023-05-02T05:53:42;10.70;;;7.43;;
18973;SDS011;9621;48.690;9.466;2023-05-02T05:56:09;9.97;;;7.33;;
18973;SDS011;9621;48.690;9.466;2023-05-02T05:58:38;12.83;;;7.47;;
18973;SDS011;9621;48.690;9.466;2023-05-02T06:01:07;8.37;;;6.87;;
18973;SDS011;9621;48.690;9.466;2023-05-02T06:03:33;9.10;;;7.40;;
18973;SDS011;9621;48.690;9.466;2023-05-02T06:06:01;10.85;;;7.93;;
18973;SDS011;9621;48.690;9.466;2023-05-02T06:08:27;11.77;;;8.23;;
18973;SDS011;9621;48.690;9.466;2023-05-02T06:10:54;10.70;;;8.00;;
18973;SDS011;9621;48.690;9.466;2023-05-02T06:13:21;9.50;;;7.53;;
18973;SDS011;9621;48.690;9.466;2023-05-02T06:15:49;11.50;;;8.98;;
18973;SDS011;9621;48.690;9.466;2023-05-02T06:18:16;11.40;;;8.15;;
18973;SDS011;9621;48.690;9.466;2023-05-02T06:20:43;8.65;;;7.43;;
18973;SDS011;9621;48.690;9.466;2023-05-02T06:23:10;11.10;;;8.23;;
18973;SDS011;9621;48.690;9.466;2023-05-02T06:25:40;13.67;;;7.60;;
18973;SDS011;9621;48.690;9.466;2023-05-02T06:28:07;9.90;;;8.13;;
18973;SDS011;9621;48.690;9.466;2023-05-02T06:30:33;9.85;;;8.20;;
18973;SDS011;9621;48.690;9.466;2023-05-02T06:33:04;10.88;;;8.27;;
18973;SDS011;9621;48.690;9.466;2023-05-02T06:35:31;8.32;;;7.47;;
18973;SDS011;9621;48.690;9.466;2023-05-02T06:37:58;10.55;;;7.68;;
18973;SDS011;9621;48.690;9.466;2023-05-02T06:40:25;10.20;;;8.32;;
18973;SDS011;9621;48.690;9.466;2023-05-02T06:42:52;10.30;;;7.80;;
18973;SDS011;9621;48.690;9.466;2023-05-02T06:45:18;9.05;;;7.50;;
18973;SDS011;9621;48.690;9.466;2023-05-02T06:47:45;9.30;;;7.70;;
18973;SDS011;9621;48.690;9.466;2023-05-02T06:50:14;9.40;;;8.43;;
18973;SDS011;9621;48.690;9.466;2023-05-02T06:52:41;12.75;;;8.50;;
18973;SDS011;9621;48.690;9.466;2023-05-02T06:55:08;9.68;;;8.05;;
18973;SDS011;9621;48.690;9.466;2023-05-02T06:57:35;9.27;;;7.40;;
18973;SDS011;9621;48.690;9.466;2023-05-02T07:00:06;10.50;;;8.45;;
18973;SDS011;9621;48.690;9.466;2023-05-02T07:02:35;10.32;;;9.20;;
18973;SDS011;9621;48.690;9.466;2023-05-02T07:05:02;11.10;;;8.13;;
18973;SDS011;9621;48.690;9.466;2023-05-02T07:07:31;11.35;;;8.23;;
18973;SDS011;9621;48.690;9.466;2023-05-02T07:09:58;10.13;;;7.85;;
18973;SDS011;9621;48.690;9.466;2023-05-02T07:12:25;10.73;;;8.32;;
18973;SDS011;9621;48.690;9.466;2023-05-02T07:14:52;9.80;;;7.57;;
18973;SDS011;9621;48.690;9.466;2023-05-02T07:17:20;11.38;;;7.60;;
18973;SDS011;9621;48.690;9.466;2023-05-02T07:19:47;9.63;;;8.20;;
18973;SDS011;9621;48.690;9.466;2023-05-02T07:22:14;10.98;;;8.60;;
18973;SDS011;9621;48.690;9.466;2023-05-02T07:24:42;10.95;;;7.82;;
18973;SDS011;9621;48.690;9.466;2023-05-02T07:27:09;9.95;;;8.63;;
18973;SDS011;9621;48.690;9.466;2023-05-02T07:29:37;10.32;;;8.43;;
18973;SDS011;9621;48.690;9.466;2023-05-02T07:32:06;11.00;;;8.77;;
18973;SDS011;9621;48.690;9.466;2023-05-02T07:34:33;13.02;;;9.30;;
18973;SDS011;9621;48.690;9.466;2023-05-02T07:37:00;10.75;;;9.48;;
18973;SDS011;9621;48.690;9.466;2023-05-02T07:39:27;14.25;;;9.07;;
18973;SDS011;9621;48.690;9.466;2023-05-02T07:41:55;11.20;;;9.57;;
18973;SDS011;9621;48.690;9.466;2023-05-02T07:44:22;12.52;;;9.30;;
18973;SDS011;9621;48.690;9.466;2023-05-02T07:46:49;11.50;;;10.10;;
18973;SDS011;9621;48.690;9.466;2023-05-02T07:49:17;11.95;;;9.95;;
18973;SDS011;9621;48.690;9.466;2023-05-02T07:51:44;13.98;;;10.40;;
18973;SDS011;9621;48.690;9.466;2023-05-02T07:54:14;12.93;;;10.75;;
18973;SDS011;9621;48.690;9.466;2023-05-02T07:56:41;12.30;;;10.57;;
18973;SDS011;9621;48.690;9.466;2023-05-02T07:59:09;12.88;;;10.75;;
18973;SDS011;9621;48.690;9.466;2023-05-02T08:01:36;12.82;;;10.48;;
18973;SDS011;9621;48.690;9.466;2023-05-02T08:04:03;12.65;;;10.93;;
18973;SDS011;9621;48.690;9.466;2023-05-02T08:06:30;12.20;;;10.40;;
18973;SDS011;9621;48.690;9.466;2023-05-02T08:08:57;14.10;;;10.73;;
18973;SDS011;9621;48.690;9.466;2023-05-02T08:11:24;13.18;;;10.68;;
18973;SDS011;9621;48.690;9.466;2023-05-02T08:13:51;12.90;;;11.50;;
18973;SDS011;9621;48.690;9.466;2023-05-02T08:16:20;14.32;;;11.70;;
18973;SDS011;9621;48.690;9.466;2023-05-02T08:18:47;13.40;;;11.15;;
18973;SDS011;9621;48.690;9.466;2023-05-02T08:21:13;16.73;;;11.70;;
18973;SDS011;9621;48.690;9.466;2023-05-02T08:23:42;16.33;;;11.63;;
18973;SDS011;9621;48.690;9.466;2023-05-02T08:26:10;15.90;;;11.65;;
18973;SDS011;9621;48.690;9.466;2023-05-02T08:28:37;13.88;;;11.38;;
18973;SDS011;9621;48.690;9.466;2023-05-02T08:31:06;15.10;;;11.82;;
18973;SDS011;9621;48.690;9.466;2023-05-02T08:33:34;14.45;;;12.55;;
18973;SDS011;9621;48.690;9.466;2023-05-02T08:36:08;18.02;;;11.93;;
18973;SDS011;9621;48.690;9.466;2023-05-02T08:38:40;17.02;;;12.20;;
18973;SDS011;9621;48.690;9.466;2023-05-02T08:41:10;15.30;;;12.52;;
18973;SDS011;9621;48.690;9.466;2023-05-02T08:43:38;16.65;;;12.10;;
18973;SDS011;9621;48.690;9.466;2023-05-02T08:46:05;16.05;;;13.07;;
18973;SDS011;9621;48.690;9.466;2023-05-02T08:48:36;17.00;;;13.27;;
18973;SDS011;9621;48.690;9.466;2023-05-02T08:51:03;16.17;;;12.25;;
18973;SDS011;9621;48.690;9.466;2023-05-02T08:53:36;14.57;;;12.02;;
18973;SDS011;9621;48.690;9.466;2023-05-02T08:56:05;17.70;;;12.63;;
18973;SDS011;9621;48.690;9.466;2023-05-02T08:58:33;16.25;;;13.15;;
18973;SDS011;9621;48.690;9.466;2023-05-02T09:01:01;15.60;;;13.40;;
18973;SDS011;9621;48.690;9.466;2023-05-02T09:03:35;16.92;;;13.70;;
18973;SDS011;9621;48.690;9.466;2023-05-02T09:06:04;15.32;;;13.50;;
18973;SDS011;9621;48.690;9.466;2023-05-02T09:08:33;18.58;;;14.55;;
18973;SDS011;9621;48.690;9.466;2023-05-02T09:11:01;19.00;;;15.68;;
18973;SDS011;9621;48.690;9.466;2023-05-02T09:13:29;18.85;;;14.80;;
18973;SDS011;9621;48.690;9.466;2023-05-02T09:15:58;22.25;;;14.68;;
18973;SDS011;9621;48.690;9.466;2023-05-02T09:18:29;18.38;;;14.80;;
18973;SDS011;9621;48.690;9.466;2023-05-02T09:20:59;20.85;;;15.07;;
18973;SDS011;9621;48.690;9.466;2023-05-02T09:23:37;21.05;;;16.17;;
18973;SDS011;9621;48.690;9.466;2023-05-02T09:26:17;19.10;;;15.07;;
18973;SDS011;9621;48.690;9.466;2023-05-02T09:28:45;20.85;;;16.90;;
18973;SDS011;9621;48.690;9.466;2023-05-02T09:31:14;18.38;;;15.18;;
18973;SDS011;9621;48.690;9.466;2023-05-02T09:33:42;18.45;;;15.00;;
18973;SDS011;9621;48.690;9.466;2023-05-02T09:36:11;19.25;;;14.82;;
18973;SDS011;9621;48.690;9.466;2023-05-02T09:38:40;18.25;;;14.98;;
18973;SDS011;9621;48.690;9.466;2023-05-02T09:41:07;19.38;;;14.68;;
18973;SDS011;9621;48.690;9.466;2023-05-02T09:43:34;17.27;;;14.73;;
18973;SDS011;9621;48.690;9.466;2023-05-02T09:46:02;18.40;;;14.85;;
18973;SDS011;9621;48.690;9.466;2023-05-02T09:48:31;17.85;;;14.35;;
18973;SDS011;9621;48.690;9.466;2023-05-02T09:50:59;19.88;;;14.48;;
18973;SDS011;9621;48.690;9.466;2023-05-02T09:53:27;18.77;;;14.57;;
18973;SDS011;9621;48.690;9.466;2023-05-02T09:55:58;19.17;;;15.25;;
18973;SDS011;9621;48.690;9.466;2023-05-02T09:58:29;17.90;;;14.60;;
18973;SDS011;9621;48.690;9.466;2023-05-02T10:00:56;16.27;;;13.95;;
18973;SDS011;9621;48.690;9.466;2023-05-02T10:03:24;17.10;;;14.32;;
18973;SDS011;9621;48.690;9.466;2023-05-02T10:05:55;18.38;;;14.27;;
18973;SDS011;9621;48.690;9.466;2023-05-02T10:08:23;15.85;;;13.60;;
18973;SDS011;9621;48.690;9.466;2023-05-02T10:10:54;19.65;;;13.20;;
18973;SDS011;9621;48.690;9.466;2023-05-02T10:13:22;16.10;;;13.05;;
18973;SDS011;9621;48.690;9.466;2023-05-02T10:15:57;16.75;;;13.05;;
18973;SDS011;9621;48.690;9.466;2023-05-02T10:18:26;15.48;;;12.52;;
18973;SDS011;9621;48.690;9.466;2023-05-02T10:20:57;17.25;;;13.55;;
18973;SDS011;9621;48.690;9.466;2023-05-02T10:23:26;16.42;;;12.30;;
18973;SDS011;9621;48.690;9.466;2023-05-02T10:25:55;15.30;;;12.20;;
18973;SDS011;9621;48.690;9.466;2023-05-02T10:28:24;14.48;;;11.65;;
18973;SDS011;9621;48.690;9.466;2023-05-02T10:30:51;14.45;;;11.65;;
18973;SDS011;9621;48.690;9.466;2023-05-02T10:33:19;13.50;;;11.30;;
18973;SDS011;9621;48.690;9.466;2023-05-02T10:35:47;14.45;;;12.10;;
18973;SDS011;9621;48.690;9.466;2023-05-02T10:38:15;14.02;;;11.75;;
18973;SDS011;9621;48.690;9.466;2023-05-02T10:40:46;12.80;;;11.05;;
18973;SDS011;9621;48.690;9.466;2023-05-02T10:43:21;13.85;;;11.95;;
18973;SDS011;9621;48.690;9.466;2023-05-02T10:45:50;15.50;;;12.38;;
18973;SDS011;9621;48.690;9.466;2023-05-02T10:48:19;14.18;;;11.43;;
18973;SDS011;9621;48.690;9.466;2023-05-02T10:50:48;13.75;;;10.18;;
18973;SDS011;9621;48.690;9.466;2023-05-02T10:53:22;11.88;;;10.25;;
18973;SDS011;9621;48.690;9.466;2023-05-02T10:58:43;10.82;;;9.68;;
18973;SDS011;9621;48.690;9.466;2023-05-02T11:04:00;12.18;;;9.20;;
18973;SDS011;9621;48.690;9.466;2023-05-02T11:06:28;10.25;;;8.90;;
18973;SDS011;9621;48.690;9.466;2023-05-02T11:11:56;10.48;;;8.65;;
18973;SDS011;9621;48.690;9.466;2023-05-02T11:17:11;11.85;;;8.70;;
18973;SDS011;9621;48.690;9.466;2023-05-02T11:22:47;11.23;;;8.85;;
18973;SDS011;9621;48.690;9.466;2023-05-02T11:25:27;10.63;;;8.60;;
18973;SDS011;9621;48.690;9.466;2023-05-02T11:28:05;9.77;;;8.60;;
18973;SDS011;9621;48.690;9.466;2023-05-02T11:30:39;12.90;;;8.48;;
18973;SDS011;9621;48.690;9.466;2023-05-02T11:33:12;12.15;;;9.32;;
18973;SDS011;9621;48.690;9.466;2023-05-02T11:35:44;10.88;;;8.82;;
18973;SDS011;9621;48.690;9.466;2023-05-02T11:38:17;11.95;;;8.75;;
18973;SDS011;9621;48.690;9.466;2023-05-02T11:40:48;11.02;;;9.52;;
18973;SDS011;9621;48.690;9.466;2023-05-02T11:43:26;12.57;;;10.43;;
18973;SDS011;9621;48.690;9.466;2023-05-02T11:45:55;9.88;;;8.82;;
18973;SDS011;9621;48.690;9.466;2023-05-02T11:48:23;13.13;;;10.10;;
18973;SDS011;9621;48.690;9.466;2023-05-02T11:50:53;11.65;;;9.48;;
18973;SDS011;9621;48.690;9.466;2023-05-02T11:53:21;11.77;;;9.45;;
18973;SDS011;9621;48.690;9.466;2023-05-02T11:55:50;10.93;;;9.25;;
18973;SDS011;9621;48.690;9.466;2023-05-02T11:58:18;12.38;;;9.32;;
18973;SDS011;9621;48.690;9.466;2023-05-02T12:00:46;11.25;;;8.30;;
18973;SDS011;9621;48.690;9.466;2023-05-02T12:03:23;9.90;;;8.63;;
18973;SDS011;9621;48.690;9.466;2023-05-02T12:05:52;11.70;;;9.40;;
18973;SDS011;9621;48.690;9.466;2023-05-02T12:08:22;9.27;;;8.30;;
18973;SDS011;9621;48.690;9.466;2023-05-02T12:10:51;10.18;;;8.85;;
18973;SDS011;9621;48.690;9.466;2023-05-02T12:13:19;10.65;;;8.30;;
18973;SDS011;9621;48.690;9.466;2023-05-02T12:15:47;10.40;;;8.23;;
18973;SDS011;9621;48.690;9.466;2023-05-02T12:18:15;9.80;;;8.35;;
18973;SDS011;9621;48.690;9.466;2023-05-02T12:20:44;8.63;;;7.60;;
18973;SDS011;9621;48.690;9.466;2023-05-02T12:23:12;9.55;;;7.32;;
18973;SDS011;9621;48.690;9.466;2023-05-02T12:25:39;8.50;;;7.10;;
18973;SDS011;9621;48.690;9.466;2023-05-02T12:28:07;8.43;;;7.18;;
18973;SDS011;9621;48.690;9.466;2023-05-02T12:30:36;9.23;;;8.13;;
18973;SDS011;9621;48.690;9.466;2023-05-02T12:33:04;10.23;;;7.78;;
18973;SDS011;9621;48.690;9.466;2023-05-02T12:35:32;8.75;;;7.65;;
18973;SDS011;9621;48.690;9.466;2023-05-02T12:38:10;9.40;;;8.23;;
18973;SDS011;9621;48.690;9.466;2023-05-02T12:40:44;10.23;;;8.02;;
18973;SDS011;9621;48.690;9.466;2023-05-02T12:43:12;8.80;;;7.40;;
18973;SDS011;9621;48.690;9.466;2023-05-02T12:45:40;10.57;;;7.88;;
18973;SDS011;9621;48.690;9.466;2023-05-02T12:48:17;9.13;;;8.10;;
18973;SDS011;9621;48.690;9.466;2023-05-02T12:50:46;9.30;;;8.05;;
18973;SDS011;9621;48.690;9.466;2023-05-02T12:53:14;9.27;;;8.32;;
18973;SDS011;9621;48.690;9.466;2023-05-02T12:55:41;8.38;;;7.40;;
18973;SDS011;9621;48.690;9.466;2023-05-02T12:58:09;8.18;;;7.38;;
18973;SDS011;9621;48.690;9.466;2023-05-02T13:00:37;8.95;;;6.40;;
18973;SDS011;9621;48.690;9.466;2023-05-02T13:03:05;8.02;;;7.15;;
18973;SDS011;9621;48.690;9.466;2023-05-02T13:05:33;9.80;;;7.00;;
18973;SDS011;9621;48.690;9.466;2023-05-02T13:08:01;9.55;;;8.20;;
18973;SDS011;9621;48.690;9.466;2023-05-02T13:10:30;9.75;;;7.70;;
18973;SDS011;9621;48.690;9.466;2023-05-02T13:12:57;9.35;;;7.88;;
18973;SDS011;9621;48.690;9.466;2023-05-02T13:15:25;11.27;;;9.88;;
18973;SDS011;9621;48.690;9.466;2023-05-02T13:17:52;13.43;;;11.38;;
18973;SDS011;9621;48.690;9.466;2023-05-02T13:20:19;15.10;;;11.18;;
18973;SDS011;9621;48.690;9.466;2023-05-02T13:22:46;12.48;;;11.18;;
18973;SDS011;9621;48.690;9.466;2023-05-02T13:25:16;14.45;;;11.73;;
18973;SDS011;9621;48.690;9.466;2023-05-02T13:27:44;15.93;;;11.82;;
18973;SDS011;9621;48.690;9.466;2023-05-02T13:30:13;15.27;;;11.10;;
18973;SDS011;9621;48.690;9.466;2023-05-02T13:32:40;12.00;;;10.25;;
18973;SDS011;9621;48.690;9.466;2023-05-02T13:35:07;14.38;;;10.50;;
18973;SDS011;9621;48.690;9.466;2023-05-02T13:37:37;10.73;;;9.45;;
18973;SDS011;9621;48.690;9.466;2023-05-02T13:40:05;11.32;;;8.43;;
18973;SDS011;9621;48.690;9.466;2023-05-02T13:42:33;12.65;;;9.30;;
18973;SDS011;9621;48.690;9.466;2023-05-02T13:45:01;11.80;;;8.65;;
18973;SDS011;9621;48.690;9.466;2023-05-02T13:47:29;10.30;;;8.10;;
18973;SDS011;9621;48.690;9.466;2023-05-02T13:49:56;10.85;;;7.90;;
18973;SDS011;9621;48.690;9.466;2023-05-02T13:52:23;13.27;;;10.57;;
18973;SDS011;9621;48.690;9.466;2023-05-02T13:54:49;12.80;;;10.55;;
18973;SDS011;9621;48.690;9.466;2023-05-02T13:57:16;16.52;;;11.80;;
18973;SDS011;9621;48.690;9.466;2023-05-02T13:59:44;15.57;;;11.73;;
18973;SDS011;9621;48.690;9.466;2023-05-02T14:02:12;15.05;;;11.30;;
18973;SDS011;9621;48.690;9.466;2023-05-02T14:04:39;9.70;;;8.02;;
18973;SDS011;9621;48.690;9.466;2023-05-02T14:07:06;8.68;;;7.55;;
18973;SDS011;9621;48.690;9.466;2023-05-02T14:09:33;10.57;;;7.95;;
18973;SDS011;9621;48.690;9.466;2023-05-02T14:12:00;10.40;;;7.78;;
18973;SDS011;9621;48.690;9.466;2023-05-02T14:14:27;9.20;;;7.30;;
18973;SDS011;9621;48.690;9.466;2023-05-02T14:16:54;9.82;;;7.90;;
18973;SDS011;9621;48.690;9.466;2023-05-02T14:19:22;8.60;;;7.38;;
18973;SDS011;9621;48.690;9.466;2023-05-02T14:21:50;10.15;;;8.43;;
18973;SDS011;9621;48.690;9.466;2023-05-02T14:24:17;12.63;;;9.43;;
18973;SDS011;9621;48.690;9.466;2023-05-02T14:26:44;10.13;;;8.48;;
18973;SDS011;9621;48.690;9.466;2023-05-02T14:29:11;11.50;;;9.27;;
18973;SDS011;9621;48.690;9.466;2023-05-02T14:31:38;11.98;;;9.40;;
18973;SDS011;9621;48.690;9.466;2023-05-02T14:34:05;13.45;;;9.50;;
18973;SDS011;9621;48.690;9.466;2023-05-02T14:36:34;14.90;;;11.00;;
18973;SDS011;9621;48.690;9.466;2023-05-02T14:39:00;14.75;;;10.85;;
18973;SDS011;9621;48.690;9.466;2023-05-02T14:41:27;13.35;;;9.85;;
18973;SDS011;9621;48.690;9.466;2023-05-02T14:43:54;14.90;;;10.57;;
18973;SDS011;9621;48.690;9.466;2023-05-02T14:46:21;13.60;;;10.73;;
18973;SDS011;9621;48.690;9.466;2023-05-02T14:48:48;16.35;;;10.68;;
18973;SDS011;9621;48.690;9.466;2023-05-02T14:51:15;12.45;;;10.73;;
18973;SDS011;9621;48.690;9.466;2023-05-02T14:53:43;13.90;;;10.45;;
18973;SDS011;9621;48.690;9.466;2023-05-02T14:56:13;13.90;;;10.88;;
18973;SDS011;9621;48.690;9.466;2023-05-02T14:58:42;15.77;;;11.57;;
18973;SDS011;9621;48.690;9.466;2023-05-02T15:01:15;15.48;;;11.15;;
18973;SDS011;9621;48.690;9.466;2023-05-02T15:03:43;13.52;;;10.73;;
18973;SDS011;9621;48.690;9.466;2023-05-02T15:06:11;15.15;;;10.73;;
18973;SDS011;9621;48.690;9.466;2023-05-02T15:08:39;17.10;;;11.55;;
18973;SDS011;9621;48.690;9.466;2023-05-02T15:11:07;15.13;;;11.05;;